sensor_id;sensor_type;location;lat;lon;timestamp;pressure;altitude;pressure_sealevel;temperature
37414;BMP280;23279;46.472;30.760;2023-05-18T00:01:17;77926.06;;;-146.33
37414;BMP280;23279;46.472;30.760;2023-05-18T00:03:43;77932.16;;;-146.33
37414;BMP280;23279;46.472;30.760;2023-05-18T00:06:10;77928.09;;;-146.33
37414;BMP280;23279;46.472;30.760;2023-05-18T00:08:36;77928.09;;;-146.33
37414;BMP280;23279;46.472;30.760;2023-05-18T00:11:03;77909.78;;;-146.33
37414;BMP280;23279;46.472;30.760;2023-05-18T00:13:29;77901.66;;;-146.33
37414;BMP280;23279;46.472;30.760;2023-05-18T00:15:55;77899.59;;;-146.33
37414;BMP280;23279;46.472;30.760;2023-05-18T00:18:21;77917.94;;;-146.33
37414;BMP280;23279;46.472;30.760;2023-05-18T00:20:51;77917.94;;;-146.33
37414;BMP280;23279;46.472;30.760;2023-05-18T00:23:24;77913.84;;;-146.33
37414;BMP280;23279;46.472;30.760;2023-05-18T00:25:49;77913.84;;;-146.33
37414;BMP280;23279;46.472;30.760;2023-05-18T00:28:15;77919.97;;;-146.33
37414;BMP280;23279;46.472;30.760;2023-05-18T00:30:41;77922.00;;;-146.33
37414;BMP280;23279;46.472;30.760;2023-05-18T00:33:07;77926.06;;;-146.33
37414;BMP280;23279;46.472;30.760;2023-05-18T00:35:32;77897.56;;;-146.33
37414;BMP280;23279;46.472;30.760;2023-05-18T00:37:58;77895.53;;;-146.33
37414;BMP280;23279;46.472;30.760;2023-05-18T00:40:24;77881.31;;;-146.33
37414;BMP280;23279;46.472;30.760;2023-05-18T00:42:51;77881.31;;;-146.33
37414;BMP280;23279;46.472;30.760;2023-05-18T00:45:17;77862.97;;;-146.33
37414;BMP280;23279;46.472;30.760;2023-05-18T00:47:43;77887.41;;;-146.33
37414;BMP280;23279;46.472;30.760;2023-05-18T00:50:09;77895.53;;;-146.33
37414;BMP280;23279;46.472;30.760;2023-05-18T00:52:35;77905.72;;;-146.33
37414;BMP280;23279;46.472;30.760;2023-05-18T00:55:00;77917.94;;;-146.33
37414;BMP280;23279;46.472;30.760;2023-05-18T00:57:26;77942.34;;;-146.33
37414;BMP280;23279;46.472;30.760;2023-05-18T00:59:52;77962.69;;;-146.33
37414;BMP280;23279;46.472;30.760;2023-05-18T01:02:19;77976.94;;;-146.33
37414;BMP280;23279;46.472;30.760;2023-05-18T01:04:45;77974.91;;;-146.33
37414;BMP280;23279;46.472;30.760;2023-05-18T01:07:10;77968.78;;;-146.33
37414;BMP280;23279;46.472;30.760;2023-05-18T01:09:37;77985.06;;;-146.33
37414;BMP280;23279;46.472;30.760;2023-05-18T01:12:09;77974.91;;;-146.33
37414;BMP280;23279;46.472;30.760;2023-05-18T01:15:12;77993.22;;;-146.33
37414;BMP280;23279;46.472;30.760;2023-05-18T01:20:45;77991.19;;;-146.33
37414;BMP280;23279;46.472;30.760;2023-05-18T01:28:20;78033.91;;;-146.33
37414;BMP280;23279;46.472;30.760;2023-05-18T01:30:54;78048.16;;;-146.33
37414;BMP280;23279;46.472;30.760;2023-05-18T01:33:20;78062.41;;;-146.33
37414;BMP280;23279;46.472;30.760;2023-05-18T01:35:45;78074.63;;;-146.33
37414;BMP280;23279;46.472;30.760;2023-05-18T01:38:17;78090.88;;;-146.33
37414;BMP280;23279;46.472;30.760;2023-05-18T01:43:19;78101.06;;;-146.33
37414;BMP280;23279;46.472;30.760;2023-05-18T01:45:50;78101.06;;;-146.33
37414;BMP280;23279;46.472;30.760;2023-05-18T01:48:19;78119.38;;;-146.33
37414;BMP280;23279;46.472;30.760;2023-05-18T01:50:47;78133.63;;;-146.33
37414;BMP280;23279;46.472;30.760;2023-05-18T01:53:24;78133.63;;;-146.33
37414;BMP280;23279;46.472;30.760;2023-05-18T01:55:53;78141.75;;;-146.33
37414;BMP280;23279;46.472;30.760;2023-05-18T01:58:19;78141.75;;;-146.33
37414;BMP280;23279;46.472;30.760;2023-05-18T02:00:46;78145.84;;;-146.33
37414;BMP280;23279;46.472;30.760;2023-05-18T02:03:13;78135.66;;;-146.33
37414;BMP280;23279;46.472;30.760;2023-05-18T02:05:38;78139.72;;;-146.33
37414;BMP280;23279;46.472;30.760;2023-05-18T02:08:05;78145.84;;;-146.33
37414;BMP280;23279;46.472;30.760;2023-05-18T02:10:30;78141.75;;;-146.33
37414;BMP280;23279;46.472;30.760;2023-05-18T02:12:56;78135.66;;;-146.33
37414;BMP280;23279;46.472;30.760;2023-05-18T02:15:22;78147.88;;;-146.33
37414;BMP280;23279;46.472;30.760;2023-05-18T02:17:47;78141.75;;;-146.33
37414;BMP280;23279;46.472;30.760;2023-05-18T02:20:13;78162.13;;;-146.33
37414;BMP280;23279;46.472;30.760;2023-05-18T02:22:42;78164.16;;;-146.33
37414;BMP280;23279;46.472;30.760;2023-05-18T02:25:09;78166.19;;;-146.33
37414;BMP280;23279;46.472;30.760;2023-05-18T02:27:34;78145.84;;;-146.33
37414;BMP280;23279;46.472;30.760;2023-05-18T02:30:02;78166.19;;;-146.33
37414;BMP280;23279;46.472;30.760;2023-05-18T02:32:28;78166.19;;;-146.33
37414;BMP280;23279;46.472;30.760;2023-05-18T02:34:56;78166.19;;;-146.33
37414;BMP280;23279;46.472;30.760;2023-05-18T02:37:22;78160.09;;;-146.33
37414;BMP280;23279;46.472;30.760;2023-05-18T02:39:47;78162.13;;;-146.33
37414;BMP280;23279;46.472;30.760;2023-05-18T02:42:14;78162.13;;;-146.33
37414;BMP280;23279;46.472;30.760;2023-05-18T02:44:39;78168.22;;;-146.33
37414;BMP280;23279;46.472;30.760;2023-05-18T02:47:06;78170.25;;;-146.33
37414;BMP280;23279;46.472;30.760;2023-05-18T02:49:31;78172.28;;;-146.33
37414;BMP280;23279;46.472;30.760;2023-05-18T02:51:57;78172.28;;;-146.33
37414;BMP280;23279;46.472;30.760;2023-05-18T02:54:23;78168.22;;;-146.33
37414;BMP280;23279;46.472;30.760;2023-05-18T02:56:48;78162.13;;;-146.33
37414;BMP280;23279;46.472;30.760;2023-05-18T02:59:14;78158.03;;;-146.33
37414;BMP280;23279;46.472;30.760;2023-05-18T03:01:40;78168.22;;;-146.33
37414;BMP280;23279;46.472;30.760;2023-05-18T03:04:05;78162.13;;;-146.33
37414;BMP280;23279;46.472;30.760;2023-05-18T03:06:31;78166.19;;;-146.33
37414;BMP280;23279;46.472;30.760;2023-05-18T03:08:56;78170.25;;;-146.33
37414;BMP280;23279;46.472;30.760;2023-05-18T03:11:23;78168.22;;;-146.33
37414;BMP280;23279;46.472;30.760;2023-05-18T03:13:49;78166.19;;;-146.33
37414;BMP280;23279;46.472;30.760;2023-05-18T03:16:14;78153.97;;;-146.33
37414;BMP280;23279;46.472;30.760;2023-05-18T03:18:40;78153.97;;;-146.33
37414;BMP280;23279;46.472;30.760;2023-05-18T03:21:05;78156.00;;;-146.33
37414;BMP280;23279;46.472;30.760;2023-05-18T03:23:32;78158.03;;;-146.33
37414;BMP280;23279;46.472;30.760;2023-05-18T03:25:58;78160.09;;;-146.33
37414;BMP280;23279;46.472;30.760;2023-05-18T03:28:27;78158.03;;;-146.33
37414;BMP280;23279;46.472;30.760;2023-05-18T03:30:52;78162.13;;;-146.33
37414;BMP280;23279;46.472;30.760;2023-05-18T03:33:17;78158.03;;;-146.33
37414;BMP280;23279;46.472;30.760;2023-05-18T03:35:43;78168.22;;;-146.33
37414;BMP280;23279;46.472;30.760;2023-05-18T03:38:08;78176.34;;;-146.33
37414;BMP280;23279;46.472;30.760;2023-05-18T03:40:34;78168.22;;;-146.33
37414;BMP280;23279;46.472;30.760;2023-05-18T03:42:59;78174.31;;;-146.33
37414;BMP280;23279;46.472;30.760;2023-05-18T03:45:25;78182.47;;;-146.33
37414;BMP280;23279;46.472;30.760;2023-05-18T03:47:51;78164.16;;;-146.33
37414;BMP280;23279;46.472;30.760;2023-05-18T03:50:16;78153.97;;;-146.33
37414;BMP280;23279;46.472;30.760;2023-05-18T03:52:42;78147.88;;;-146.33
37414;BMP280;23279;46.472;30.760;2023-05-18T03:55:09;78143.81;;;-146.33
37414;BMP280;23279;46.472;30.760;2023-05-18T03:57:35;78143.81;;;-146.33
37414;BMP280;23279;46.472;30.760;2023-05-18T04:00:03;78135.66;;;-146.33
37414;BMP280;23279;46.472;30.760;2023-05-18T04:02:31;78149.91;;;-146.33
37414;BMP280;23279;46.472;30.760;2023-05-18T04:04:56;78127.53;;;-146.33
37414;BMP280;23279;46.472;30.760;2023-05-18T04:07:22;78129.56;;;-146.33
37414;BMP280;23279;46.472;30.760;2023-05-18T04:09:49;78127.53;;;-146.33
37414;BMP280;23279;46.472;30.760;2023-05-18T04:12:15;78119.38;;;-146.33
37414;BMP280;23279;46.472;30.760;2023-05-18T04:14:41;78119.38;;;-146.33
37414;BMP280;23279;46.472;30.760;2023-05-18T04:17:07;78105.13;;;-146.33
37414;BMP280;23279;46.472;30.760;2023-05-18T04:19:33;78111.25;;;-146.33
37414;BMP280;23279;46.472;30.760;2023-05-18T04:21:59;78097.00;;;-146.33
37414;BMP280;23279;46.472;30.760;2023-05-18T04:24:30;78103.09;;;-146.33
37414;BMP280;23279;46.472;30.760;2023-05-18T04:27:00;78105.13;;;-146.33
37414;BMP280;23279;46.472;30.760;2023-05-18T04:29:27;78097.00;;;-146.33
37414;BMP280;23279;46.472;30.760;2023-05-18T04:31:55;78088.84;;;-146.33
37414;BMP280;23279;46.472;30.760;2023-05-18T04:34:29;78076.66;;;-146.33
37414;BMP280;23279;46.472;30.760;2023-05-18T04:36:56;78088.84;;;-146.33
37414;BMP280;23279;46.472;30.760;2023-05-18T04:39:24;78082.75;;;-146.33
37414;BMP280;23279;46.472;30.760;2023-05-18T04:41:51;78076.66;;;-146.33
37414;BMP280;23279;46.472;30.760;2023-05-18T04:44:31;78068.50;;;-146.33
37414;BMP280;23279;46.472;30.760;2023-05-18T04:46:58;78072.56;;;-146.33
37414;BMP280;23279;46.472;30.760;2023-05-18T04:49:24;78068.50;;;-146.33
37414;BMP280;23279;46.472;30.760;2023-05-18T04:51:52;78052.22;;;-146.33
37414;BMP280;23279;46.472;30.760;2023-05-18T04:54:27;78052.22;;;-146.33
37414;BMP280;23279;46.472;30.760;2023-05-18T04:56:57;78052.22;;;-146.33
37414;BMP280;23279;46.472;30.760;2023-05-18T04:59:23;78046.13;;;-146.33
37414;BMP280;23279;46.472;30.760;2023-05-18T05:01:54;78048.16;;;-146.33
37414;BMP280;23279;46.472;30.760;2023-05-18T05:04:20;78031.88;;;-146.33
37414;BMP280;23279;46.472;30.760;2023-05-18T05:07:04;78019.66;;;-146.33
37414;BMP280;23279;46.472;30.760;2023-05-18T05:09:29;78011.53;;;-146.33
37414;BMP280;23279;46.472;30.760;2023-05-18T05:11:57;77991.19;;;-146.33
37414;BMP280;23279;46.472;30.760;2023-05-18T05:14:48;77960.66;;;-146.33
37414;BMP280;23279;46.472;30.760;2023-05-18T05:17:38;77942.34;;;-146.33
37414;BMP280;23279;46.472;30.760;2023-05-18T05:23:10;77889.44;;;-146.33
37414;BMP280;23279;46.472;30.760;2023-05-18T05:25:47;77877.22;;;-146.33
37414;BMP280;23279;46.472;30.760;2023-05-18T05:28:22;77865.03;;;-146.33
37414;BMP280;23279;46.472;30.760;2023-05-18T05:30:59;77877.22;;;-146.33
37414;BMP280;23279;46.472;30.760;2023-05-18T05:33:49;77909.78;;;-146.33
37414;BMP280;23279;46.472;30.760;2023-05-18T05:36:27;77919.97;;;-146.33
37414;BMP280;23279;46.472;30.760;2023-05-18T05:42:39;77922.00;;;-146.33
37414;BMP280;23279;46.472;30.760;2023-05-18T05:48:10;77948.44;;;-146.33
37414;BMP280;23279;46.472;30.760;2023-05-18T05:50:43;77936.25;;;-146.33
37414;BMP280;23279;46.472;30.760;2023-05-18T05:53:08;77930.13;;;-146.33
37414;BMP280;23279;46.472;30.760;2023-05-18T05:55:42;77930.13;;;-146.33
37414;BMP280;23279;46.472;30.760;2023-05-18T05:58:09;77934.19;;;-146.33
37414;BMP280;23279;46.472;30.760;2023-05-18T06:00:35;77909.78;;;-146.33
37414;BMP280;23279;46.472;30.760;2023-05-18T06:03:01;77895.53;;;-146.33
37414;BMP280;23279;46.472;30.760;2023-05-18T06:05:26;77873.16;;;-146.33
37414;BMP280;23279;46.472;30.760;2023-05-18T06:07:52;77879.25;;;-146.33
37414;BMP280;23279;46.472;30.760;2023-05-18T06:10:17;77852.81;;;-146.33
37414;BMP280;23279;46.472;30.760;2023-05-18T06:12:43;77832.47;;;-146.33
37414;BMP280;23279;46.472;30.760;2023-05-18T06:15:11;77842.63;;;-146.33
37414;BMP280;23279;46.472;30.760;2023-05-18T06:17:45;77822.28;;;-146.33
37414;BMP280;23279;46.472;30.760;2023-05-18T06:20:40;77816.19;;;-146.33
37414;BMP280;23279;46.472;30.760;2023-05-18T06:23:09;77808.03;;;-146.33
37414;BMP280;23279;46.472;30.760;2023-05-18T06:25:41;77799.91;;;-146.33
37414;BMP280;23279;46.472;30.760;2023-05-18T06:28:17;77810.06;;;-146.33
37414;BMP280;23279;46.472;30.760;2023-05-18T06:30:45;77797.88;;;-146.33
37414;BMP280;23279;46.472;30.760;2023-05-18T06:33:17;77803.97;;;-146.33
37414;BMP280;23279;46.472;30.760;2023-05-18T06:35:45;77795.84;;;-146.33
37414;BMP280;23279;46.472;30.760;2023-05-18T06:38:20;77779.56;;;-146.33
37414;BMP280;23279;46.472;30.760;2023-05-18T06:40:46;77779.56;;;-146.33
37414;BMP280;23279;46.472;30.760;2023-05-18T06:43:11;77763.28;;;-146.33
37414;BMP280;23279;46.472;30.760;2023-05-18T06:45:37;77767.34;;;-146.33
37414;BMP280;23279;46.472;30.760;2023-05-18T06:48:02;77771.41;;;-146.33
37414;BMP280;23279;46.472;30.760;2023-05-18T06:50:31;77767.34;;;-146.33
37414;BMP280;23279;46.472;30.760;2023-05-18T06:53:00;77749.03;;;-146.33
37414;BMP280;23279;46.472;30.760;2023-05-18T06:55:26;77738.88;;;-146.33
37414;BMP280;23279;46.472;30.760;2023-05-18T06:57:52;77732.75;;;-146.33
37414;BMP280;23279;46.472;30.760;2023-05-18T07:00:20;77732.75;;;-146.33
37414;BMP280;23279;46.472;30.760;2023-05-18T07:02:46;77738.88;;;-146.33
37414;BMP280;23279;46.472;30.760;2023-05-18T07:05:14;77698.16;;;-146.33
37414;BMP280;23279;46.472;30.760;2023-05-18T07:07:41;77710.38;;;-146.33
37414;BMP280;23279;46.472;30.760;2023-05-18T07:10:07;77685.97;;;-146.33
37414;BMP280;23279;46.472;30.760;2023-05-18T07:12:32;77673.75;;;-146.33
37414;BMP280;23279;46.472;30.760;2023-05-18T07:14:58;77665.63;;;-146.33
37414;BMP280;23279;46.472;30.760;2023-05-18T07:17:23;77657.47;;;-146.33
37414;BMP280;23279;46.472;30.760;2023-05-18T07:19:49;77659.50;;;-146.33
37414;BMP280;23279;46.472;30.760;2023-05-18T07:22:14;77653.41;;;-146.33
37414;BMP280;23279;46.472;30.760;2023-05-18T07:24:40;77657.47;;;-146.33
37414;BMP280;23279;46.472;30.760;2023-05-18T07:27:05;77645.28;;;-146.33
37414;BMP280;23279;46.472;30.760;2023-05-18T07:29:32;77641.19;;;-146.33
37414;BMP280;23279;46.472;30.760;2023-05-18T07:31:58;77614.75;;;-146.33
37414;BMP280;23279;46.472;30.760;2023-05-18T07:34:23;77602.53;;;-146.33
37414;BMP280;23279;46.472;30.760;2023-05-18T07:36:51;77586.25;;;-146.33
37414;BMP280;23279;46.472;30.760;2023-05-18T07:39:16;77576.09;;;-146.33
37414;BMP280;23279;46.472;30.760;2023-05-18T07:41:46;77584.22;;;-146.33
37414;BMP280;23279;46.472;30.760;2023-05-18T07:44:12;77580.16;;;-146.33
37414;BMP280;23279;46.472;30.760;2023-05-18T07:46:39;77582.19;;;-146.33
37414;BMP280;23279;46.472;30.760;2023-05-18T07:49:04;77578.13;;;-146.33
37414;BMP280;23279;46.472;30.760;2023-05-18T07:51:30;77572.03;;;-146.33
37414;BMP280;23279;46.472;30.760;2023-05-18T07:53:55;77567.94;;;-146.33
37414;BMP280;23279;46.472;30.760;2023-05-18T07:56:22;77580.16;;;-146.33
37414;BMP280;23279;46.472;30.760;2023-05-18T07:58:48;77576.09;;;-146.33
37414;BMP280;23279;46.472;30.760;2023-05-18T08:01:14;77576.09;;;-146.33
37414;BMP280;23279;46.472;30.760;2023-05-18T08:03:39;77570.00;;;-146.33
37414;BMP280;23279;46.472;30.760;2023-05-18T08:06:05;77582.19;;;-146.33
37414;BMP280;23279;46.472;30.760;2023-05-18T08:08:30;77572.03;;;-146.33
37414;BMP280;23279;46.472;30.760;2023-05-18T08:10:58;77551.69;;;-146.33
37414;BMP280;23279;46.472;30.760;2023-05-18T08:13:23;77563.88;;;-146.33
37414;BMP280;23279;46.472;30.760;2023-05-18T08:15:49;77574.06;;;-146.33
37414;BMP280;23279;46.472;30.760;2023-05-18T08:18:14;77563.88;;;-146.33
37414;BMP280;23279;46.472;30.760;2023-05-18T08:20:40;77545.56;;;-146.33
37414;BMP280;23279;46.472;30.760;2023-05-18T08:23:05;77543.53;;;-146.33
37414;BMP280;23279;46.472;30.760;2023-05-18T08:25:31;77533.38;;;-146.33
37414;BMP280;23279;46.472;30.760;2023-05-18T08:27:56;77539.47;;;-146.33
37414;BMP280;23279;46.472;30.760;2023-05-18T08:30:21;77525.22;;;-146.33
37414;BMP280;23279;46.472;30.760;2023-05-18T08:32:47;77539.47;;;-146.33
37414;BMP280;23279;46.472;30.760;2023-05-18T08:35:13;77559.81;;;-146.33
37414;BMP280;23279;46.472;30.760;2023-05-18T08:37:38;77543.53;;;-146.33
37414;BMP280;23279;46.472;30.760;2023-05-18T08:40:05;77559.81;;;-146.33
37414;BMP280;23279;46.472;30.760;2023-05-18T08:42:51;77545.56;;;-146.33
37414;BMP280;23279;46.472;30.760;2023-05-18T08:45:35;77549.66;;;-146.33
37414;BMP280;23279;46.472;30.760;2023-05-18T08:48:04;77535.41;;;-146.33
37414;BMP280;23279;46.472;30.760;2023-05-18T08:50:31;77527.25;;;-146.33
37414;BMP280;23279;46.472;30.760;2023-05-18T08:53:04;77515.06;;;-146.33
37414;BMP280;23279;46.472;30.760;2023-05-18T08:55:31;77517.09;;;-146.33
37414;BMP280;23279;46.472;30.760;2023-05-18T08:58:02;77508.94;;;-146.33
37414;BMP280;23279;46.472;30.760;2023-05-18T09:00:28;77502.84;;;-146.33
37414;BMP280;23279;46.472;30.760;2023-05-18T09:02:54;77510.97;;;-146.33
37414;BMP280;23279;46.472;30.760;2023-05-18T09:05:20;77519.13;;;-146.33
37414;BMP280;23279;46.472;30.760;2023-05-18T09:07:50;77510.97;;;-146.33
37414;BMP280;23279;46.472;30.760;2023-05-18T09:10:16;77490.63;;;-146.33
37414;BMP280;23279;46.472;30.760;2023-05-18T09:12:43;77484.53;;;-146.33
37414;BMP280;23279;46.472;30.760;2023-05-18T09:15:17;77466.22;;;-146.33
37414;BMP280;23279;46.472;30.760;2023-05-18T09:17:53;77470.28;;;-146.33
37414;BMP280;23279;46.472;30.760;2023-05-18T09:20:26;77470.28;;;-146.33
37414;BMP280;23279;46.472;30.760;2023-05-18T09:22:58;77445.88;;;-146.33
37414;BMP280;23279;46.472;30.760;2023-05-18T09:25:26;77474.38;;;-146.33
37414;BMP280;23279;46.472;30.760;2023-05-18T09:27:52;77456.06;;;-146.33
37414;BMP280;23279;46.472;30.760;2023-05-18T09:30:17;77441.81;;;-146.33
37414;BMP280;23279;46.472;30.760;2023-05-18T09:32:57;77456.06;;;-146.33
37414;BMP280;23279;46.472;30.760;2023-05-18T09:35:33;77437.75;;;-146.33
37414;BMP280;23279;46.472;30.760;2023-05-18T09:38:06;77454.03;;;-146.33
37414;BMP280;23279;46.472;30.760;2023-05-18T09:40:33;77454.03;;;-146.33
37414;BMP280;23279;46.472;30.760;2023-05-18T09:43:05;77433.69;;;-146.33
37414;BMP280;23279;46.472;30.760;2023-05-18T09:45:31;77415.38;;;-146.33
37414;BMP280;23279;46.472;30.760;2023-05-18T09:47:57;77403.16;;;-146.33
37414;BMP280;23279;46.472;30.760;2023-05-18T09:50:30;77358.41;;;-146.33
37414;BMP280;23279;46.472;30.760;2023-05-18T09:52:59;77374.69;;;-146.33
37414;BMP280;23279;46.472;30.760;2023-05-18T09:55:31;77382.81;;;-146.33
37414;BMP280;23279;46.472;30.760;2023-05-18T09:58:22;77336.03;;;-146.33
37414;BMP280;23279;46.472;30.760;2023-05-18T10:00:59;77321.78;;;-146.33
37414;BMP280;23279;46.472;30.760;2023-05-18T10:03:35;77317.72;;;-146.33
37414;BMP280;23279;46.472;30.760;2023-05-18T10:06:16;77287.19;;;-146.33
37414;BMP280;23279;46.472;30.760;2023-05-18T10:08:44;77275.00;;;-146.33
37414;BMP280;23279;46.472;30.760;2023-05-18T10:11:14;77279.06;;;-146.33
37414;BMP280;23279;46.472;30.760;2023-05-18T10:13:44;77299.41;;;-146.33
37414;BMP280;23279;46.472;30.760;2023-05-18T10:16:11;77319.75;;;-146.33
37414;BMP280;23279;46.472;30.760;2023-05-18T10:21:45;77287.19;;;-146.33
37414;BMP280;23279;46.472;30.760;2023-05-18T10:24:18;77275.00;;;-146.33
37414;BMP280;23279;46.472;30.760;2023-05-18T10:26:45;77311.59;;;-146.33
37414;BMP280;23279;46.472;30.760;2023-05-18T10:29:13;77275.00;;;-146.33
37414;BMP280;23279;46.472;30.760;2023-05-18T10:31:53;77283.13;;;-146.33
37414;BMP280;23279;46.472;30.760;2023-05-18T10:34:38;77275.00;;;-146.33
37414;BMP280;23279;46.472;30.760;2023-05-18T10:37:11;77254.66;;;-146.33
37414;BMP280;23279;46.472;30.760;2023-05-18T10:39:41;77209.88;;;-146.33
37414;BMP280;23279;46.472;30.760;2023-05-18T10:42:23;77224.13;;;-146.33
37414;BMP280;23279;46.472;30.760;2023-05-18T10:44:52;77181.41;;;-146.33
37414;BMP280;23279;46.472;30.760;2023-05-18T10:47:36;77154.97;;;-146.33
37414;BMP280;23279;46.472;30.760;2023-05-18T10:50:07;77148.84;;;-146.33
37414;BMP280;23279;46.472;30.760;2023-05-18T10:52:42;77136.66;;;-146.33
37414;BMP280;23279;46.472;30.760;2023-05-18T10:55:13;77130.56;;;-146.33
37414;BMP280;23279;46.472;30.760;2023-05-18T10:57:59;77098.00;;;-146.33
37414;BMP280;23279;46.472;30.760;2023-05-18T11:01:01;77093.94;;;-146.33
37414;BMP280;23279;46.472;30.760;2023-05-18T11:03:32;77095.97;;;-146.33
37414;BMP280;23279;46.472;30.760;2023-05-18T11:06:04;77079.69;;;-146.33
37414;BMP280;23279;46.472;30.760;2023-05-18T11:08:31;77059.34;;;-146.33
37414;BMP280;23279;46.472;30.760;2023-05-18T11:11:04;77063.41;;;-146.33
37414;BMP280;23279;46.472;30.760;2023-05-18T11:13:34;77063.41;;;-146.33
37414;BMP280;23279;46.472;30.760;2023-05-18T11:16:06;77118.34;;;-146.33
37414;BMP280;23279;46.472;30.760;2023-05-18T11:19:48;77142.75;;;-146.33
37414;BMP280;23279;46.472;30.760;2023-05-18T11:22:10;77173.28;;;-146.33
37414;BMP280;23279;46.472;30.760;2023-05-18T11:24:39;77181.41;;;-146.33
37414;BMP280;23279;46.472;30.760;2023-05-18T11:27:28;77193.63;;;-146.33
37414;BMP280;23279;46.472;30.760;2023-05-18T11:30:15;77185.47;;;-146.33
37414;BMP280;23279;46.472;30.760;2023-05-18T11:32:49;77161.06;;;-146.33
37414;BMP280;23279;46.472;30.760;2023-05-18T11:35:22;77161.06;;;-146.33
37414;BMP280;23279;46.472;30.760;2023-05-18T11:38:08;77144.78;;;-146.33
37414;BMP280;23279;46.472;30.760;2023-05-18T11:43:20;77116.31;;;-146.33
37414;BMP280;23279;46.472;30.760;2023-05-18T11:45:56;77116.31;;;-146.33
37414;BMP280;23279;46.472;30.760;2023-05-18T11:48:24;77100.03;;;-146.33
37414;BMP280;23279;46.472;30.760;2023-05-18T11:51:07;77093.94;;;-146.33
37414;BMP280;23279;46.472;30.760;2023-05-18T11:53:35;77091.91;;;-146.33
37414;BMP280;23279;46.472;30.760;2023-05-18T11:56:01;77091.91;;;-146.33
37414;BMP280;23279;46.472;30.760;2023-05-18T11:58:29;77069.53;;;-146.33
37414;BMP280;23279;46.472;30.760;2023-05-18T12:00:54;77077.66;;;-146.33
37414;BMP280;23279;46.472;30.760;2023-05-18T12:03:22;77104.09;;;-146.33
37414;BMP280;23279;46.472;30.760;2023-05-18T12:05:48;77134.63;;;-146.33
37414;BMP280;23279;46.472;30.760;2023-05-18T12:08:25;77144.78;;;-146.33
37414;BMP280;23279;46.472;30.760;2023-05-18T12:10:54;77157.00;;;-146.33
37414;BMP280;23279;46.472;30.760;2023-05-18T12:13:19;77152.94;;;-146.33
37414;BMP280;23279;46.472;30.760;2023-05-18T12:15:47;77167.16;;;-146.33
37414;BMP280;23279;46.472;30.760;2023-05-18T12:18:12;77171.25;;;-146.33
37414;BMP280;23279;46.472;30.760;2023-05-18T12:20:39;77177.34;;;-146.33
37414;BMP280;23279;46.472;30.760;2023-05-18T12:23:08;77179.38;;;-146.33
37414;BMP280;23279;46.472;30.760;2023-05-18T12:25:42;77185.47;;;-146.33
37414;BMP280;23279;46.472;30.760;2023-05-18T12:28:08;77199.72;;;-146.33
37414;BMP280;23279;46.472;30.760;2023-05-18T12:30:34;77189.53;;;-146.33
37414;BMP280;23279;46.472;30.760;2023-05-18T12:33:00;77169.19;;;-146.33
37414;BMP280;23279;46.472;30.760;2023-05-18T12:35:29;77185.47;;;-146.33
37414;BMP280;23279;46.472;30.760;2023-05-18T12:37:56;77169.19;;;-146.33
37414;BMP280;23279;46.472;30.760;2023-05-18T12:40:24;77159.03;;;-146.33
37414;BMP280;23279;46.472;30.760;2023-05-18T12:42:59;77150.91;;;-146.33
37414;BMP280;23279;46.472;30.760;2023-05-18T12:45:27;77116.31;;;-146.33
37414;BMP280;23279;46.472;30.760;2023-05-18T12:47:55;77112.25;;;-146.33
37414;BMP280;23279;46.472;30.760;2023-05-18T12:50:22;77098.00;;;-146.33
37414;BMP280;23279;46.472;30.760;2023-05-18T12:52:50;77075.63;;;-146.33
37414;BMP280;23279;46.472;30.760;2023-05-18T12:55:20;77055.28;;;-146.33
37414;BMP280;23279;46.472;30.760;2023-05-18T12:58:14;77039.00;;;-146.33
37414;BMP280;23279;46.472;30.760;2023-05-18T13:00:44;77014.59;;;-146.33
37414;BMP280;23279;46.472;30.760;2023-05-18T13:03:11;77028.84;;;-146.33
37414;BMP280;23279;46.472;30.760;2023-05-18T13:05:38;77014.59;;;-146.33
37414;BMP280;23279;46.472;30.760;2023-05-18T13:08:05;77010.53;;;-146.33
37414;BMP280;23279;46.472;30.760;2023-05-18T13:10:31;77018.66;;;-146.33
37414;BMP280;23279;46.472;30.760;2023-05-18T13:12:57;77039.00;;;-146.33
37414;BMP280;23279;46.472;30.760;2023-05-18T13:15:39;77063.41;;;-146.33
37414;BMP280;23279;46.472;30.760;2023-05-18T13:18:06;77093.94;;;-146.33
37414;BMP280;23279;46.472;30.760;2023-05-18T13:20:42;77126.47;;;-146.33
37414;BMP280;23279;46.472;30.760;2023-05-18T13:23:11;77165.13;;;-146.33
37414;BMP280;23279;46.472;30.760;2023-05-18T13:25:40;77183.44;;;-146.33
37414;BMP280;23279;46.472;30.760;2023-05-18T13:28:07;77197.69;;;-146.33
37414;BMP280;23279;46.472;30.760;2023-05-18T13:30:37;77213.97;;;-146.33
37414;BMP280;23279;46.472;30.760;2023-05-18T13:33:04;77228.19;;;-146.33
37414;BMP280;23279;46.472;30.760;2023-05-18T13:35:30;77234.31;;;-146.33
37414;BMP280;23279;46.472;30.760;2023-05-18T13:37:55;77232.28;;;-146.33
37414;BMP280;23279;46.472;30.760;2023-05-18T13:40:21;77242.44;;;-146.33
37414;BMP280;23279;46.472;30.760;2023-05-18T13:42:49;77238.38;;;-146.33
37414;BMP280;23279;46.472;30.760;2023-05-18T13:45:15;77230.22;;;-146.33
37414;BMP280;23279;46.472;30.760;2023-05-18T13:47:41;77222.09;;;-146.33
37414;BMP280;23279;46.472;30.760;2023-05-18T13:50:08;77226.16;;;-146.33
37414;BMP280;23279;46.472;30.760;2023-05-18T13:52:34;77234.31;;;-146.33
37414;BMP280;23279;46.472;30.760;2023-05-18T13:55:01;77209.88;;;-146.33
37414;BMP280;23279;46.472;30.760;2023-05-18T13:57:26;77205.81;;;-146.33
37414;BMP280;23279;46.472;30.760;2023-05-18T13:59:52;77218.03;;;-146.33
37414;BMP280;23279;46.472;30.760;2023-05-18T14:02:18;77222.09;;;-146.33
37414;BMP280;23279;46.472;30.760;2023-05-18T14:04:43;77197.69;;;-146.33
37414;BMP280;23279;46.472;30.760;2023-05-18T14:07:09;77169.19;;;-146.33
37414;BMP280;23279;46.472;30.760;2023-05-18T14:09:35;77163.09;;;-146.33